Time;durP1;ratioP1;P1;durP2;ratioP2;P2;SDS_P1;SDS_P2;PMS_P1;PMS_P2;Temp;Humidity;BMP_temperature;BMP_pressure;BME280_temperature;BME280_humidity;BME280_pressure;Samples;Min_cycle;Max_cycle;Signal;HPM_P1;HPM_P2
2023/01/30 00:01:17;;;;;;;0.00;0.00;;;-0.10;99.90;;;;;;4926029;29;20024;-80
2023/01/30 00:03:54;;;;;;;0.00;0.00;;;-0.10;99.90;;;;;;4920454;29;20095;-83
2023/01/30 00:06:23;;;;;;;0.00;0.00;;;-0.10;99.90;;;;;;4917494;29;20024;-79
2023/01/30 00:08:50;;;;;;;0.00;0.00;;;-0.10;99.90;;;;;;4920276;29;20051;-79
2023/01/30 00:11:23;;;;;;;0.00;0.00;;;-0.10;99.90;;;;;;4921875;29;20036;-80
2023/01/30 00:13:50;;;;;;;0.00;0.00;;;-0.10;99.90;;;;;;4917661;29;20492;-80
2023/01/30 00:16:20;;;;;;;0.70;0.60;;;-0.10;99.90;;;;;;4922444;29;20035;-79
2023/01/30 00:18:48;;;;;;;0.00;0.00;;;-0.10;99.90;;;;;;4919529;29;20508;-80
2023/01/30 00:21:16;;;;;;;0.00;0.00;;;-0.10;99.90;;;;;;4921712;29;20032;-80
2023/01/30 00:23:48;;;;;;;0.00;0.00;;;-0.10;99.90;;;;;;4921605;29;20034;-80
2023/01/30 00:26:13;;;;;;;0.00;0.00;;;-0.10;99.90;;;;;;4920132;29;20132;-80
2023/01/30 00:28:41;;;;;;;0.00;0.00;;;-0.10;99.90;;;;;;4922120;29;20118;-80
2023/01/30 00:31:24;;;;;;;0.47;0.47;;;-0.10;99.90;;;;;;4916992;29;20068;-80
2023/01/30 00:33:51;;;;;;;0.00;0.00;;;-0.10;99.90;;;;;;4918374;29;20020;-80
2023/01/30 00:36:17;;;;;;;0.00;0.00;;;-0.10;99.90;;;;;;4915896;29;20465;-80
2023/01/30 00:38:44;;;;;;;0.00;0.00;;;-0.10;99.90;;;;;;4915833;29;20028;-80
2023/01/30 00:41:12;;;;;;;0.47;0.47;;;0.00;99.90;;;;;;4920115;29;20790;-80
2023/01/30 00:49:19;;;;;;;0.00;0.00;;;-0.10;99.90;;;;;;4915414;29;20074;-80
2023/01/30 00:51:46;;;;;;;0.00;0.00;;;-0.10;99.90;;;;;;4920181;29;20584;-80
2023/01/30 00:54:15;;;;;;;;;;;-0.10;99.90;;;;;;4919628;29;20031;-80
2023/01/30 00:56:45;;;;;;;0.00;0.00;;;-0.10;99.90;;;;;;4917257;29;20265;-79
2023/01/30 00:59:10;;;;;;;0.00;0.00;;;-0.10;99.90;;;;;;4916911;29;20652;-82
2023/01/30 01:01:38;;;;;;;0.00;0.00;;;-0.10;99.90;;;;;;4910661;29;20038;-79
2023/01/30 01:04:07;;;;;;;0.52;0.52;;;-0.10;99.90;;;;;;4916372;29;20062;-86
2023/01/30 01:06:33;;;;;;;0.00;0.00;;;0.30;99.90;;;;;;4919223;29;20540;-80
2023/01/30 01:08:59;;;;;;;0.00;0.00;;;-0.10;99.90;;;;;;4911538;29;20035;-80
2023/01/30 01:11:25;;;;;;;0.00;0.00;;;-0.10;99.90;;;;;;4916991;29;20338;-80
2023/01/30 01:14:04;;;;;;;0.00;0.00;;;-0.10;99.90;;;;;;4912596;29;20746;-80
2023/01/30 01:16:34;;;;;;;0.15;0.15;;;-0.10;99.90;;;;;;4917527;29;20048;-78
2023/01/30 01:19:01;;;;;;;0.00;0.00;;;-0.10;99.90;;;;;;4915676;29;20020;-80
2023/01/30 01:21:27;;;;;;;;;;;-0.10;99.90;;;;;;4915177;29;20032;-79
2023/01/30 01:24:02;;;;;;;0.00;0.00;;;-0.10;99.90;;;;;;4915118;29;20021;-80
2023/01/30 01:26:30;;;;;;;0.00;0.00;;;-0.10;99.90;;;;;;4917647;29;20032;-79
2023/01/30 01:29:01;;;;;;;0.00;0.00;;;-0.10;99.90;;;;;;4921624;29;20020;-80
2023/01/30 01:31:29;;;;;;;0.00;0.00;;;-0.10;99.90;;;;;;4919875;29;20503;-79
2023/01/30 01:33:55;;;;;;;0.43;0.40;;;-0.10;99.90;;;;;;4918600;29;20016;-79
2023/01/30 01:36:21;;;;;;;0.00;0.00;;;-0.10;99.90;;;;;;4919956;29;20101;-79
2023/01/30 01:39:00;;;;;;;0.05;0.05;;;0.00;99.90;;;;;;4914252;29;20421;-80
2023/01/30 01:41:28;;;;;;;0.00;0.00;;;0.00;99.90;;;;;;4908999;29;20023;-78
2023/01/30 01:44:08;;;;;;;0.00;0.00;;;-0.10;99.90;;;;;;4917353;29;20039;-79
2023/01/30 01:46:51;;;;;;;0.00;0.00;;;-0.10;99.90;;;;;;4910477;29;20537;-79
2023/01/30 01:49:25;;;;;;;0.00;0.00;;;0.00;99.90;;;;;;4918166;29;20501;-79
2023/01/30 01:52:04;;;;;;;0.00;0.00;;;0.00;99.90;;;;;;4916094;29;20027;-80
2023/01/30 01:54:46;;;;;;;0.00;0.00;;;0.00;99.90;;;;;;4917413;29;20016;-85
2023/01/30 01:57:28;;;;;;;0.00;0.00;;;-0.10;99.90;;;;;;4916403;29;20050;-80
2023/01/30 02:00:15;;;;;;;0.00;0.00;;;-0.10;99.90;;;;;;4916979;29;20016;-84
2023/01/30 02:02:59;;;;;;;0.30;0.30;;;-0.10;99.90;;;;;;4914985;29;20024;-80
2023/01/30 02:05:36;;;;;;;0.00;0.00;;;0.00;99.90;;;;;;4918054;29;20016;-81
2023/01/30 02:08:10;;;;;;;0.00;0.00;;;-0.10;99.90;;;;;;4908578;29;20460;-80
2023/01/30 02:10:57;;;;;;;0.30;0.30;;;-0.10;99.90;;;;;;4907839;29;20083;-81
2023/01/30 02:13:26;;;;;;;0.00;0.00;;;-0.10;99.90;;;;;;4919331;29;20031;-81
2023/01/30 02:15:54;;;;;;;0.00;0.00;;;0.00;99.90;;;;;;4908995;29;20020;-80
2023/01/30 02:18:31;;;;;;;0.00;0.00;;;0.00;99.90;;;;;;4916020;29;20024;-80
2023/01/30 02:21:03;;;;;;;0.00;0.00;;;-0.10;99.90;;;;;;4916508;29;20102;-80
2023/01/30 02:23:41;;;;;;;0.00;0.00;;;-0.10;99.90;;;;;;4916388;29;20182;-81
2023/01/30 02:26:28;;;;;;;0.00;0.00;;;-0.20;99.90;;;;;;4913056;29;20033;-79
2023/01/30 02:29:31;;;;;;;0.00;0.00;;;-0.20;99.90;;;;;;4912666;29;20028;-79
2023/01/30 02:32:29;;;;;;;0.00;0.00;;;-0.10;99.90;;;;;;4910886;29;20020;-79
2023/01/30 02:35:21;;;;;;;0.00;0.00;;;-0.20;99.90;;;;;;4906664;29;20107;-82
2023/01/30 02:38:05;;;;;;;0.00;0.00;;;-0.10;99.90;;;;;;4915719;29;20032;-80
2023/01/30 02:40:48;;;;;;;0.00;0.00;;;-0.20;99.90;;;;;;4912718;29;20024;-80
2023/01/30 02:43:46;;;;;;;0.00;0.00;;;-0.20;99.90;;;;;;4921276;29;20509;-80
2023/01/30 02:46:32;;;;;;;0.00;0.00;;;-0.10;99.90;;;;;;4919134;29;20066;-80
2023/01/30 02:49:12;;;;;;;0.00;0.00;;;0.00;99.90;;;;;;4914644;29;20259;-79
2023/01/30 02:51:41;;;;;;;0.00;0.00;;;-0.10;99.90;;;;;;4914861;29;20047;-80
2023/01/30 02:54:13;;;;;;;0.00;0.00;;;-0.10;99.90;;;;;;4916687;29;20056;-80
2023/01/30 02:56:58;;;;;;;0.00;0.00;;;-0.10;99.90;;;;;;4914806;29;20036;-80
2023/01/30 02:59:40;;;;;;;0.00;0.00;;;-0.10;99.90;;;;;;4913810;29;20024;-86
2023/01/30 03:02:44;;;;;;;0.00;0.00;;;-0.10;99.90;;;;;;4917450;29;20020;-87
2023/01/30 03:05:42;;;;;;;0.00;0.00;;;-0.10;99.90;;;;;;4917102;29;20115;-81
2023/01/30 03:08:14;;;;;;;0.00;0.00;;;0.00;99.90;;;;;;4914313;29;20128;-80
2023/01/30 03:11:04;;;;;;;0.00;0.00;;;-0.10;99.90;;;;;;4917180;29;20102;-79
2023/01/30 03:13:40;;;;;;;0.00;0.00;;;-0.10;99.90;;;;;;4915316;29;20385;-82
2023/01/30 03:16:39;;;;;;;0.00;0.00;;;-0.10;99.90;;;;;;4918079;29;20020;-80
2023/01/30 03:19:10;;;;;;;0.00;0.00;;;-0.10;99.90;;;;;;4898613;29;20646;-79
2023/01/30 03:21:41;;;;;;;0.00;0.00;;;0.00;99.90;;;;;;4913420;29;20059;-79
2023/01/30 03:24:08;;;;;;;0.00;0.00;;;0.00;99.90;;;;;;4919761;29;20023;-79
2023/01/30 03:26:37;;;;;;;0.00;0.00;;;0.00;99.90;;;;;;4919061;29;20366;-81
2023/01/30 03:29:03;;;;;;;0.00;0.00;;;0.10;99.90;;;;;;4919715;29;20798;-80
2023/01/30 03:31:29;;;;;;;0.00;0.00;;;0.10;99.90;;;;;;4919597;29;20035;-79
2023/01/30 03:33:56;;;;;;;0.00;0.00;;;0.10;99.90;;;;;;4915266;29;20027;-83
2023/01/30 03:36:33;;;;;;;;;;;0.10;99.90;;;;;;4907424;29;20606;-80
2023/01/30 03:38:59;;;;;;;0.00;0.00;;;0.20;99.90;;;;;;4913345;29;19997;-78
2023/01/30 03:41:34;;;;;;;0.00;0.00;;;0.90;99.90;;;;;;4916372;29;20444;-78
2023/01/30 03:44:00;;;;;;;0.00;0.00;;;0.20;99.90;;;;;;4914173;29;20114;-79
2023/01/30 03:46:27;;;;;;;0.00;0.00;;;0.20;99.90;;;;;;4912816;29;20845;-79
2023/01/30 03:49:02;;;;;;;0.00;0.00;;;0.20;99.90;;;;;;4909605;29;20477;-79
2023/01/30 03:51:50;;;;;;;0.00;0.00;;;0.20;99.90;;;;;;4907773;29;20092;-80
2023/01/30 03:54:24;;;;;;;0.00;0.00;;;0.20;99.90;;;;;;4911355;29;20028;-80
2023/01/30 03:56:53;;;;;;;0.00;0.00;;;0.20;99.90;;;;;;4911494;29;20469;-85
2023/01/30 03:59:25;;;;;;;0.00;0.00;;;0.30;99.90;;;;;;4912431;29;20039;-81
2023/01/30 04:01:50;;;;;;;0.00;0.00;;;0.30;99.90;;;;;;4914353;29;20042;-80
2023/01/30 04:04:24;;;;;;;0.00;0.00;;;0.30;99.90;;;;;;4915493;29;20804;-81
2023/01/30 04:06:51;;;;;;;0.00;0.00;;;0.30;99.90;;;;;;4907380;29;20028;-79
2023/01/30 04:09:25;;;;;;;0.00;0.00;;;0.30;99.90;;;;;;4912831;29;20505;-80
2023/01/30 04:11:51;;;;;;;0.00;0.00;;;0.40;99.90;;;;;;4920620;29;20044;-81
2023/01/30 04:14:18;;;;;;;0.00;0.00;;;0.40;99.90;;;;;;4919243;29;20090;-83
2023/01/30 04:16:44;;;;;;;;;;;0.40;99.90;;;;;;4915575;29;20035;-80
2023/01/30 04:19:10;;;;;;;0.00;0.00;;;0.30;99.90;;;;;;4916894;29;19926;-79
2023/01/30 04:21:37;;;;;;;0.00;0.00;;;0.30;99.90;;;;;;4920913;29;20027;-80
2023/01/30 04:24:02;;;;;;;0.00;0.00;;;0.30;99.90;;;;;;4916810;29;20026;-80
2023/01/30 04:26:29;;;;;;;0.00;0.00;;;0.40;99.90;;;;;;4906594;29;20032;-81
2023/01/30 04:28:55;;;;;;;0.00;0.00;;;0.40;99.90;;;;;;4910635;29;20023;-78
2023/01/30 04:31:20;;;;;;;0.00;0.00;;;0.30;99.90;;;;;;4911638;29;20520;-79
2023/01/30 04:33:47;;;;;;;0.00;0.00;;;0.40;99.90;;;;;;4911398;29;20050;-80
2023/01/30 04:36:13;;;;;;;;;;;0.40;99.90;;;;;;4914822;29;21645;-81
2023/01/30 04:38:39;;;;;;;0.00;0.00;;;0.40;99.90;;;;;;4909377;29;19991;-80
2023/01/30 04:41:05;;;;;;;0.00;0.00;;;0.40;99.90;;;;;;4913145;29;20026;-80
2023/01/30 04:43:31;;;;;;;0.00;0.00;;;0.50;99.90;;;;;;4906642;29;20800;-80
2023/01/30 04:45:57;;;;;;;0.00;0.00;;;0.50;99.90;;;;;;4916829;29;20028;-80
2023/01/30 04:48:24;;;;;;;0.00;0.00;;;0.50;99.90;;;;;;4911942;29;20042;-78
2023/01/30 04:50:53;;;;;;;0.00;0.00;;;0.50;99.90;;;;;;4917236;29;20062;-80
2023/01/30 04:53:21;;;;;;;0.00;0.00;;;0.50;99.90;;;;;;4912054;29;20111;-80
2023/01/30 04:55:48;;;;;;;0.00;0.00;;;0.40;99.90;;;;;;4919630;29;20038;-80
2023/01/30 04:58:14;;;;;;;;;;;0.50;99.90;;;;;;4914892;29;20496;-80
2023/01/30 05:00:42;;;;;;;0.38;0.38;;;0.40;99.90;;;;;;4917722;29;19937;-79
2023/01/30 05:03:07;;;;;;;0.00;0.00;;;0.40;99.90;;;;;;4917185;29;20035;-81
2023/01/30 05:05:33;;;;;;;0.00;0.00;;;0.40;99.90;;;;;;4918641;29;20032;-80
2023/01/30 05:08:00;;;;;;;0.00;0.00;;;0.50;99.90;;;;;;4907888;28;20048;-79
2023/01/30 05:10:27;;;;;;;0.00;0.00;;;0.50;99.90;;;;;;4914417;29;20064;-80
2023/01/30 05:12:52;;;;;;;;;;;0.50;99.90;;;;;;4917643;29;20034;-80
2023/01/30 05:15:19;;;;;;;0.00;0.00;;;0.50;99.90;;;;;;4915643;29;20014;-79
2023/01/30 05:17:45;;;;;;;;;;;0.50;99.90;;;;;;4915859;29;20024;-79
2023/01/30 05:20:12;;;;;;;0.00;0.00;;;0.50;99.90;;;;;;4914975;29;20407;-80
2023/01/30 05:22:39;;;;;;;0.00;0.00;;;0.60;99.90;;;;;;4915049;29;20046;-80
2023/01/30 05:25:05;;;;;;;;;;;0.60;99.90;;;;;;4919466;29;20354;-79
2023/01/30 05:27:32;;;;;;;0.00;0.00;;;0.60;99.90;;;;;;4915859;29;19946;-78
2023/01/30 05:29:59;;;;;;;0.00;0.00;;;0.60;99.90;;;;;;4920547;29;20114;-79
2023/01/30 05:32:26;;;;;;;0.00;0.00;;;0.60;99.90;;;;;;4912635;29;20023;-78
2023/01/30 05:34:52;;;;;;;0.00;0.00;;;0.60;99.90;;;;;;4915908;29;20369;-79
2023/01/30 05:37:21;;;;;;;0.00;0.00;;;0.70;99.90;;;;;;4908369;29;20024;-78
2023/01/30 05:39:48;;;;;;;0.00;0.00;;;0.70;99.90;;;;;;4915655;29;20273;-78
2023/01/30 05:42:14;;;;;;;0.00;0.00;;;0.70;99.90;;;;;;4912606;29;20489;-79
2023/01/30 05:44:40;;;;;;;0.22;0.20;;;0.90;99.90;;;;;;4912978;29;20537;-79
2023/01/30 05:47:07;;;;;;;0.00;0.00;;;0.70;99.90;;;;;;4914915;29;20028;-80
2023/01/30 05:49:33;;;;;;;0.00;0.00;;;0.70;99.90;;;;;;4917933;29;20027;-82
2023/01/30 05:51:59;;;;;;;0.00;0.00;;;0.70;99.90;;;;;;4910887;29;20087;-78
2023/01/30 05:54:27;;;;;;;0.00;0.00;;;0.70;99.90;;;;;;4910666;29;20040;-77
2023/01/30 05:56:53;;;;;;;0.00;0.00;;;0.70;99.90;;;;;;4907661;29;20027;-76
2023/01/30 05:59:19;;;;;;;0.00;0.00;;;0.70;99.90;;;;;;4920790;29;20386;-80
2023/01/30 06:01:45;;;;;;;;;;;0.70;99.90;;;;;;4915291;29;20114;-81
2023/01/30 06:04:12;;;;;;;0.00;0.00;;;0.70;99.90;;;;;;4898836;29;19978;-78
2023/01/30 06:06:37;;;;;;;0.00;0.00;;;0.70;99.90;;;;;;4914514;29;20111;-79
2023/01/30 06:09:04;;;;;;;0.00;0.00;;;0.70;99.90;;;;;;4915503;29;20158;-79
2023/01/30 06:11:31;;;;;;;0.00;0.00;;;0.70;99.90;;;;;;4915633;29;20056;-79
2023/01/30 06:13:57;;;;;;;0.00;0.00;;;0.70;99.90;;;;;;4913097;29;20078;-80
2023/01/30 06:16:23;;;;;;;0.00;0.00;;;0.70;99.90;;;;;;4915673;29;20381;-78
2023/01/30 06:18:59;;;;;;;0.00;0.00;;;0.70;99.90;;;;;;4914833;29;20035;-79
2023/01/30 06:21:25;;;;;;;0.00;0.00;;;0.70;99.90;;;;;;4920233;29;20023;-78
2023/01/30 06:23:52;;;;;;;0.00;0.00;;;0.70;99.90;;;;;;4914346;29;20024;-79
2023/01/30 06:26:18;;;;;;;0.00;0.00;;;0.70;99.90;;;;;;4914570;29;20028;-78
2023/01/30 06:28:52;;;;;;;0.00;0.00;;;0.70;99.90;;;;;;4920561;29;20033;-78
2023/01/30 06:31:17;;;;;;;0.00;0.00;;;0.80;99.90;;;;;;4912897;29;20079;-78
2023/01/30 06:33:43;;;;;;;0.00;0.00;;;0.90;99.90;;;;;;4915125;29;20115;-81
2023/01/30 06:36:11;;;;;;;0.00;0.00;;;1.10;99.90;;;;;;4910833;29;20028;-79
2023/01/30 06:38:38;;;;;;;0.30;0.30;;;1.30;99.90;;;;;;4916925;29;20024;-79
2023/01/30 06:41:04;;;;;;;;;;;1.40;99.90;;;;;;4913244;29;20139;-78
2023/01/30 06:43:29;;;;;;;0.00;0.00;;;1.30;99.90;;;;;;4907668;29;20555;-79
2023/01/30 06:45:58;;;;;;;0.00;0.00;;;1.20;99.90;;;;;;4915972;29;20042;-77
2023/01/30 06:48:26;;;;;;;0.00;0.00;;;1.10;99.90;;;;;;4909882;29;20036;-82
2023/01/30 06:50:52;;;;;;;0.00;0.00;;;1.10;99.90;;;;;;4919462;29;20028;-78
2023/01/30 06:53:18;;;;;;;0.00;0.00;;;1.10;99.90;;;;;;4915852;29;20031;-78
2023/01/30 06:55:45;;;;;;;0.00;0.00;;;1.00;99.90;;;;;;4914184;29;20032;-79
2023/01/30 06:58:13;;;;;;;0.00;0.00;;;1.10;99.90;;;;;;4910332;29;20027;-78
2023/01/30 07:00:42;;;;;;;0.00;0.00;;;1.20;99.90;;;;;;4907740;29;20056;-82
2023/01/30 07:03:14;;;;;;;0.00;0.00;;;1.20;99.90;;;;;;4910903;29;20024;-79
2023/01/30 07:05:50;;;;;;;0.00;0.00;;;1.20;99.90;;;;;;4914761;29;20421;-79
2023/01/30 07:08:17;;;;;;;0.00;0.00;;;1.20;99.90;;;;;;4916595;29;20032;-78
2023/01/30 07:10:43;;;;;;;;;;;1.20;99.90;;;;;;4909466;29;20035;-78
2023/01/30 07:13:09;;;;;;;0.30;0.30;;;1.20;99.90;;;;;;4912412;29;19926;-77
2023/01/30 07:15:39;;;;;;;0.45;0.43;;;1.20;99.90;;;;;;4906513;29;20438;-77
2023/01/30 07:18:04;;;;;;;0.00;0.00;;;1.30;99.90;;;;;;4912194;29;20703;-76
2023/01/30 07:20:31;;;;;;;0.00;0.00;;;1.40;99.90;;;;;;4910534;29;20091;-78
2023/01/30 07:22:58;;;;;;;0.00;0.00;;;1.40;99.90;;;;;;4912062;29;20032;-78
2023/01/30 07:25:26;;;;;;;0.00;0.00;;;1.50;99.90;;;;;;4912084;29;20027;-80
2023/01/30 07:27:56;;;;;;;0.00;0.00;;;1.60;99.90;;;;;;4909715;29;20027;-77
2023/01/30 07:30:24;;;;;;;0.00;0.00;;;1.60;99.90;;;;;;4907140;29;20380;-79
2023/01/30 07:32:57;;;;;;;0.00;0.00;;;1.70;99.90;;;;;;4912578;29;20071;-79
2023/01/30 07:35:24;;;;;;;0.00;0.00;;;1.80;99.90;;;;;;4916189;29;20032;-79
2023/01/30 07:37:50;;;;;;;;;;;1.90;99.90;;;;;;4911775;29;20105;-79
2023/01/30 07:40:17;;;;;;;0.00;0.00;;;2.00;99.90;;;;;;4916629;29;19911;-78
2023/01/30 07:42:56;;;;;;;0.00;0.00;;;2.10;99.90;;;;;;4911036;29;20034;-78
2023/01/30 07:45:23;;;;;;;0.00;0.00;;;2.10;99.90;;;;;;4908812;29;20498;-78
2023/01/30 07:47:48;;;;;;;0.00;0.00;;;2.20;99.90;;;;;;4909645;29;20028;-78
2023/01/30 07:50:14;;;;;;;0.00;0.00;;;2.30;99.90;;;;;;4911554;29;20035;-80
2023/01/30 07:52:41;;;;;;;0.00;0.00;;;2.30;99.90;;;;;;4908533;29;20032;-80
2023/01/30 07:55:08;;;;;;;0.00;0.00;;;2.40;99.90;;;;;;4908705;29;20102;-78
2023/01/30 07:57:34;;;;;;;;;;;2.50;99.90;;;;;;4909719;29;20076;-78
2023/01/30 08:00:00;;;;;;;0.00;0.00;;;2.50;99.90;;;;;;4912097;29;20338;-78
2023/01/30 08:02:27;;;;;;;0.43;0.43;;;2.60;99.90;;;;;;4911386;29;20102;-77
2023/01/30 08:04:54;;;;;;;0.00;0.00;;;2.60;99.90;;;;;;4916375;29;20032;-78
2023/01/30 08:07:22;;;;;;;0.45;0.45;;;2.80;99.90;;;;;;4911083;29;20040;-78
2023/01/30 08:09:48;;;;;;;0.00;0.00;;;2.90;99.90;;;;;;4913031;28;20055;-78
2023/01/30 08:12:13;;;;;;;0.00;0.00;;;3.30;99.90;;;;;;4909049;29;20028;-78
2023/01/30 08:14:40;;;;;;;0.00;0.00;;;3.70;99.90;;;;;;4911258;29;20496;-78
2023/01/30 08:17:06;;;;;;;0.00;0.00;;;3.80;99.90;;;;;;4911252;29;20016;-78
2023/01/30 08:19:31;;;;;;;0.00;0.00;;;3.80;99.90;;;;;;4911120;29;20379;-79
2023/01/30 08:21:58;;;;;;;0.00;0.00;;;3.90;99.90;;;;;;4911475;29;20636;-78
2023/01/30 08:24:25;;;;;;;1.55;0.35;;;4.20;99.90;;;;;;4914514;29;20418;-77
2023/01/30 08:26:52;;;;;;;0.00;0.00;;;4.40;99.90;;;;;;4911345;29;20031;-78
2023/01/30 08:29:17;;;;;;;0.00;0.00;;;4.60;99.90;;;;;;4910157;29;20031;-78
2023/01/30 08:31:43;;;;;;;0.00;0.00;;;4.90;99.90;;;;;;4914063;29;20032;-77
2023/01/30 08:34:09;;;;;;;0.00;0.00;;;6.00;99.90;;;;;;4913410;29;20382;-77
2023/01/30 08:36:36;;;;;;;0.00;0.00;;;7.40;97.90;;;;;;4911814;29;20031;-79
2023/01/30 08:39:01;;;;;;;0.00;0.00;;;8.50;90.60;;;;;;4921339;29;20279;-78
2023/01/30 08:41:27;;;;;;;0.00;0.00;;;8.90;84.10;;;;;;4903850;29;20027;-78
2023/01/30 08:43:54;;;;;;;0.00;0.00;;;9.40;81.70;;;;;;4916310;29;20098;-77
2023/01/30 08:46:21;;;;;;;0.00;0.00;;;8.80;80.30;;;;;;4908483;29;20023;-78
2023/01/30 08:48:48;;;;;;;0.00;0.00;;;9.20;79.80;;;;;;4908698;29;20032;-76
2023/01/30 08:51:14;;;;;;;0.00;0.00;;;9.60;75.80;;;;;;4912605;29;20498;-75
2023/01/30 08:53:45;;;;;;;;;;;9.40;72.40;;;;;;4918685;29;20064;-75
2023/01/30 08:56:15;;;;;;;0.00;0.00;;;9.50;74.20;;;;;;4913179;29;19907;-75
2023/01/30 08:58:44;;;;;;;0.00;0.00;;;10.90;70.60;;;;;;4915529;29;20027;-75
2023/01/30 09:01:11;;;;;;;0.00;0.00;;;11.20;66.30;;;;;;4912226;29;20028;-75
2023/01/30 09:03:38;;;;;;;0.10;0.10;;;11.10;65.30;;;;;;4911963;29;20036;-75
2023/01/30 09:06:04;;;;;;;;;;;10.10;68.70;;;;;;4915468;29;20056;-78
2023/01/30 09:08:38;;;;;;;0.00;0.00;;;8.60;73.00;;;;;;4909765;29;19966;-78
2023/01/30 09:11:05;;;;;;;0.00;0.00;;;7.80;78.70;;;;;;4913110;29;20035;-77
2023/01/30 09:13:42;;;;;;;0.00;0.00;;;7.10;84.50;;;;;;4913494;29;20031;-77
2023/01/30 09:16:12;;;;;;;0.00;0.00;;;7.00;88.10;;;;;;4912806;29;20028;-78
2023/01/30 09:18:43;;;;;;;0.00;0.00;;;6.70;90.90;;;;;;4911968;29;20118;-77
2023/01/30 09:21:10;;;;;;;0.00;0.00;;;7.70;91.70;;;;;;4911811;29;20123;-77
2023/01/30 09:23:40;;;;;;;0.00;0.00;;;8.70;85.40;;;;;;4914708;29;21266;-77
2023/01/30 09:26:07;;;;;;;0.00;0.00;;;9.10;81.20;;;;;;4910368;29;20066;-79
2023/01/30 09:28:40;;;;;;;0.00;0.00;;;8.50;79.40;;;;;;4913700;29;20031;-77
2023/01/30 09:31:07;;;;;;;0.00;0.00;;;7.80;82.80;;;;;;4916418;29;20034;-78
2023/01/30 09:33:34;;;;;;;;;;;7.60;85.20;;;;;;4917064;29;20377;-77
2023/01/30 09:36:04;;;;;;;0.00;0.00;;;7.40;84.80;;;;;;4909525;29;19911;-78
2023/01/30 09:38:35;;;;;;;0.00;0.00;;;7.20;85.60;;;;;;4909537;29;20431;-78
2023/01/30 09:41:29;;;;;;;0.00;0.00;;;7.20;87.40;;;;;;4912443;29;20078;-78
2023/01/30 09:44:15;;;;;;;0.00;0.00;;;7.40;84.90;;;;;;4908975;29;20812;-77
2023/01/30 09:47:05;;;;;;;0.00;0.00;;;7.10;84.60;;;;;;4905072;29;20032;-77
2023/01/30 09:49:49;;;;;;;0.00;0.00;;;7.00;85.40;;;;;;4904345;29;20625;-77
2023/01/30 09:52:23;;;;;;;0.00;0.00;;;7.20;83.50;;;;;;4913562;29;20036;-77
2023/01/30 09:54:54;;;;;;;0.00;0.00;;;7.70;81.90;;;;;;4914350;29;20020;-78
2023/01/30 09:57:23;;;;;;;0.00;0.00;;;7.70;81.60;;;;;;4911473;29;20034;-78
2023/01/30 09:59:55;;;;;;;0.00;0.00;;;8.80;78.60;;;;;;4912369;29;20036;-77
2023/01/30 10:02:36;;;;;;;0.00;0.00;;;9.70;76.30;;;;;;4905150;29;20106;-77
2023/01/30 10:05:03;;;;;;;0.00;0.00;;;10.80;73.60;;;;;;4912036;29;20024;-77
2023/01/30 10:07:47;;;;;;;0.00;0.00;;;12.40;66.60;;;;;;4909510;29;20023;-77
2023/01/30 10:10:21;;;;;;;0.00;0.00;;;10.90;68.20;;;;;;4907424;29;20159;-75
2023/01/30 10:13:09;;;;;;;0.00;0.00;;;10.90;69.50;;;;;;4908877;29;20520;-75
2023/01/30 10:15:39;;;;;;;0.00;0.00;;;9.70;71.60;;;;;;4911878;29;20029;-75
2023/01/30 10:18:33;;;;;;;0.00;0.00;;;8.80;77.20;;;;;;4906712;29;20023;-75
2023/01/30 10:21:15;;;;;;;0.00;0.00;;;10.50;73.50;;;;;;4909423;29;20024;-75
2023/01/30 10:24:03;;;;;;;0.00;0.00;;;11.40;69.50;;;;;;4913101;29;20028;-75
2023/01/30 10:26:30;;;;;;;0.00;0.00;;;11.00;69.80;;;;;;4903721;29;20027;-74
2023/01/30 10:29:29;;;;;;;0.00;0.00;;;10.20;69.20;;;;;;4912735;29;20035;-75
2023/01/30 10:32:06;;;;;;;0.00;0.00;;;8.70;74.60;;;;;;4900216;29;20039;-75
2023/01/30 10:34:48;;;;;;;0.00;0.00;;;7.70;79.10;;;;;;4907188;29;20138;-77
2023/01/30 10:37:41;;;;;;;0.00;0.00;;;7.00;85.10;;;;;;4908326;29;20024;-78
2023/01/30 10:40:19;;;;;;;0.00;0.00;;;6.30;90.60;;;;;;4910348;29;20023;-77
2023/01/30 10:42:56;;;;;;;0.00;0.00;;;6.10;93.50;;;;;;4909112;29;20063;-78
2023/01/30 10:45:32;;;;;;;0.00;0.00;;;5.80;95.00;;;;;;4911229;29;20026;-77
2023/01/30 10:48:23;;;;;;;0.00;0.00;;;5.70;95.90;;;;;;4906870;29;20047;-77
2023/01/30 10:51:02;;;;;;;0.00;0.00;;;5.60;97.60;;;;;;4912405;29;20027;-77
2023/01/30 10:53:32;;;;;;;0.00;0.00;;;5.60;97.40;;;;;;4902671;29;20473;-77
2023/01/30 10:56:03;;;;;;;0.00;0.00;;;5.70;97.30;;;;;;4902770;29;20489;-78
2023/01/30 10:58:42;;;;;;;0.00;0.00;;;5.80;96.50;;;;;;4909276;29;20381;-77
2023/01/30 11:01:20;;;;;;;0.00;0.00;;;6.10;96.00;;;;;;4906581;29;20020;-77
2023/01/30 11:04:24;;;;;;;0.00;0.00;;;7.50;92.30;;;;;;4910898;29;20032;-77
2023/01/30 11:06:53;;;;;;;0.00;0.00;;;9.10;80.50;;;;;;4870596;29;20040;-77
2023/01/30 11:09:19;;;;;;;0.00;0.00;;;9.60;76.00;;;;;;4873493;29;20127;-78
2023/01/30 11:11:52;;;;;;;0.00;0.00;;;11.20;69.60;;;;;;4876882;29;21727;-77
2023/01/30 11:14:27;;;;;;;0.00;0.00;;;12.00;64.20;;;;;;4876272;29;20818;-77
2023/01/30 11:16:55;;;;;;;0.00;0.00;;;10.60;64.70;;;;;;4896199;29;20035;-77
2023/01/30 11:19:30;;;;;;;0.00;0.00;;;9.70;68.10;;;;;;4911977;29;20099;-77
2023/01/30 11:22:02;;;;;;;0.00;0.00;;;9.10;68.20;;;;;;4905920;29;20079;-77
2023/01/30 11:24:43;;;;;;;0.00;0.00;;;9.00;69.60;;;;;;4914339;29;20035;-77
2023/01/30 11:27:15;;;;;;;0.00;0.00;;;9.00;69.60;;;;;;4911982;29;20046;-77
2023/01/30 11:29:42;;;;;;;0.00;0.00;;;8.70;71.10;;;;;;4909695;29;20028;-77
2023/01/30 11:32:12;;;;;;;0.00;0.00;;;8.40;72.90;;;;;;4914560;29;20046;-78
2023/01/30 11:34:43;;;;;;;0.00;0.00;;;8.00;73.40;;;;;;4914106;29;20449;-77
2023/01/30 11:37:43;;;;;;;0.00;0.00;;;8.20;74.60;;;;;;4907563;29;20016;-77
2023/01/30 11:40:25;;;;;;;0.00;0.00;;;8.00;74.60;;;;;;4886545;29;20031;-77
2023/01/30 11:43:11;;;;;;;0.00;0.00;;;7.50;77.30;;;;;;4908196;29;20024;-77
2023/01/30 11:45:45;;;;;;;0.00;0.00;;;7.30;79.80;;;;;;4909054;29;20309;-77
2023/01/30 11:48:20;;;;;;;0.00;0.00;;;7.30;79.50;;;;;;4909221;29;20016;-77
2023/01/30 11:50:49;;;;;;;0.00;0.00;;;7.40;80.40;;;;;;4914767;29;20109;-77
2023/01/30 11:53:29;;;;;;;0.00;0.00;;;7.40;79.60;;;;;;4911620;29;20028;-77
2023/01/30 11:55:58;;;;;;;0.00;0.00;;;7.40;80.90;;;;;;4899369;29;20031;-77
2023/01/30 11:58:32;;;;;;;0.00;0.00;;;7.50;80.50;;;;;;4909987;29;20032;-77
2023/01/30 12:00:58;;;;;;;0.00;0.00;;;7.50;79.50;;;;;;4912978;29;20029;-77
2023/01/30 12:03:28;;;;;;;0.00;0.00;;;7.50;81.00;;;;;;4913064;29;20024;-77
2023/01/30 12:05:56;;;;;;;0.00;0.00;;;7.60;80.80;;;;;;4908474;29;20050;-77
2023/01/30 12:08:36;;;;;;;0.00;0.00;;;7.80;80.20;;;;;;4912752;29;20116;-77
2023/01/30 12:11:02;;;;;;;0.85;0.38;;;8.00;80.00;;;;;;4904077;29;20027;-77
2023/01/30 12:13:42;;;;;;;0.00;0.00;;;8.30;78.80;;;;;;4912348;29;20035;-77
2023/01/30 12:16:26;;;;;;;0.00;0.00;;;8.50;78.80;;;;;;4908215;29;20024;-78
2023/01/30 12:19:10;;;;;;;0.22;0.22;;;8.80;76.60;;;;;;4900543;29;20028;-78
2023/01/30 12:21:58;;;;;;;0.00;0.00;;;8.50;76.10;;;;;;4906946;29;20028;-77
2023/01/30 12:24:47;;;;;;;0.20;0.20;;;7.90;78.90;;;;;;4914021;29;20028;-75
2023/01/30 12:27:29;;;;;;;0.00;0.00;;;7.50;82.20;;;;;;4908621;29;20690;-75
2023/01/30 12:30:03;;;;;;;0.00;0.00;;;7.20;85.70;;;;;;4905706;29;20028;-75
2023/01/30 12:32:32;;;;;;;0.00;0.00;;;6.90;89.00;;;;;;4909859;29;20143;-75
2023/01/30 12:35:17;;;;;;;0.00;0.00;;;6.70;91.00;;;;;;4911180;29;20030;-75
2023/01/30 12:38:20;;;;;;;0.00;0.00;;;6.50;92.00;;;;;;4911282;29;20047;-77
2023/01/30 12:41:30;;;;;;;0.00;0.00;;;6.20;94.10;;;;;;4912477;29;20478;-77
2023/01/30 12:44:37;;;;;;;0.00;0.00;;;6.00;96.20;;;;;;4914817;29;20020;-77
2023/01/30 12:47:12;;;;;;;0.00;0.00;;;5.70;97.90;;;;;;4905655;29;20031;-76
2023/01/30 12:49:56;;;;;;;0.00;0.00;;;5.60;99.50;;;;;;4911676;29;20020;-77
2023/01/30 12:52:48;;;;;;;0.00;0.00;;;5.50;99.90;;;;;;4913971;29;20028;-77
2023/01/30 12:55:45;;;;;;;0.00;0.00;;;5.40;99.90;;;;;;4906613;29;20043;-77
2023/01/30 12:58:44;;;;;;;0.00;0.00;;;5.30;99.90;;;;;;4913961;29;20107;-77
2023/01/30 13:01:26;;;;;;;0.13;0.13;;;5.30;99.90;;;;;;4911497;29;20465;-77
2023/01/30 13:04:01;;;;;;;0.00;0.00;;;5.30;99.90;;;;;;4917051;29;20036;-77
2023/01/30 13:06:53;;;;;;;0.00;0.00;;;5.30;99.90;;;;;;4912784;29;20027;-77
2023/01/30 13:09:34;;;;;;;0.00;0.00;;;5.20;99.90;;;;;;4915198;29;20032;-77
2023/01/30 13:12:05;;;;;;;0.00;0.00;;;5.10;99.90;;;;;;4914386;29;20020;-77
2023/01/30 13:14:31;;;;;;;0.00;0.00;;;5.00;99.90;;;;;;4909198;29;20188;-77
2023/01/30 13:17:19;;;;;;;0.00;0.00;;;4.90;99.90;;;;;;4909551;29;20462;-77
2023/01/30 13:20:04;;;;;;;;;;;5.00;99.90;;;;;;4906082;29;20168;-76
2023/01/30 13:23:05;;;;;;;0.00;0.00;;;4.90;99.90;;;;;;4904175;29;20534;-77
2023/01/30 13:25:53;;;;;;;0.00;0.00;;;4.90;99.90;;;;;;4904731;29;20039;-77
2023/01/30 13:28:40;;;;;;;0.00;0.00;;;5.00;99.90;;;;;;4912907;29;20028;-78
2023/01/30 13:31:20;;;;;;;0.00;0.00;;;5.00;99.90;;;;;;4911408;29;20035;-77
2023/01/30 13:33:49;;;;;;;0.00;0.00;;;4.80;99.90;;;;;;4913918;29;20106;-77
2023/01/30 13:36:26;;;;;;;0.00;0.00;;;4.70;99.90;;;;;;4917463;29;20067;-77